createdAt,value
2022-09-20T00:00:27.353Z,100.00
2022-09-20T00:02:55.049Z,100.00
2022-09-20T00:05:22.721Z,100.00
2022-09-20T00:07:51.702Z,100.00
2022-09-20T00:10:19.423Z,100.00
2022-09-20T00:12:47.049Z,100.00
2022-09-20T00:15:14.696Z,100.00
2022-09-20T00:17:42.288Z,100.00
2022-09-20T00:20:10.431Z,100.00
2022-09-20T00:22:38.029Z,100.00
2022-09-20T00:25:08.987Z,100.00
2022-09-20T00:27:36.596Z,100.00
2022-09-20T00:30:04.439Z,100.00
2022-09-20T00:32:32.380Z,100.00
2022-09-20T00:35:08.212Z,100.00
2022-09-20T00:37:36.516Z,100.00
2022-09-20T00:40:05.511Z,100.00
2022-09-20T00:42:34.627Z,100.00
2022-09-20T00:45:04.440Z,100.00
2022-09-20T00:47:38.522Z,100.00
2022-09-20T00:50:19.932Z,100.00
2022-09-20T00:52:51.441Z,100.00
2022-09-20T00:55:20.613Z,100.00
2022-09-20T00:57:49.883Z,100.00
2022-09-20T01:00:17.960Z,100.00
2022-09-20T01:02:50.295Z,100.00
2022-09-20T01:05:20.432Z,100.00
2022-09-20T01:07:51.340Z,100.00
2022-09-20T01:10:19.096Z,100.00
2022-09-20T01:12:49.883Z,100.00
2022-09-20T01:15:18.194Z,100.00
2022-09-20T01:17:48.905Z,100.00
2022-09-20T01:20:20.454Z,100.00
2022-09-20T01:23:10.368Z,100.00
2022-09-20T01:25:59.671Z,100.00
2022-09-20T01:28:31.135Z,100.00
2022-09-20T01:31:08.057Z,100.00
2022-09-20T01:33:45.728Z,100.00
2022-09-20T01:36:20.000Z,100.00
2022-09-20T01:38:57.801Z,100.00
2022-09-20T01:41:30.565Z,100.00
2022-09-20T01:44:07.823Z,100.00
2022-09-20T01:46:38.169Z,100.00
2022-09-20T01:49:19.890Z,100.00
2022-09-20T01:52:16.974Z,100.00
2022-09-20T01:55:10.650Z,100.00
2022-09-20T01:58:14.704Z,100.00
2022-09-20T02:01:00.205Z,100.00
2022-09-20T02:03:49.949Z,100.00
2022-09-20T02:06:43.919Z,100.00
2022-09-20T02:09:34.016Z,100.00
2022-09-20T02:12:30.404Z,100.00
2022-09-20T02:15:10.135Z,100.00
2022-09-20T02:17:50.534Z,100.00
2022-09-20T02:20:32.089Z,100.00
2022-09-20T02:23:30.130Z,100.00
2022-09-20T02:26:12.549Z,100.00
2022-09-20T02:28:54.066Z,100.00
2022-09-20T02:31:40.139Z,100.00
2022-09-20T02:34:33.079Z,100.00
2022-09-20T02:37:22.501Z,100.00
2022-09-20T02:40:00.295Z,100.00
2022-09-20T02:42:38.109Z,100.00
2022-09-20T02:45:12.561Z,100.00
2022-09-20T02:47:43.713Z,100.00
2022-09-20T02:50:29.930Z,100.00
2022-09-20T02:53:12.563Z,100.00
2022-09-20T02:55:48.683Z,100.00
2022-09-20T02:58:33.140Z,100.00
2022-09-20T03:01:08.654Z,100.00
2022-09-20T03:03:45.438Z,100.00
2022-09-20T03:06:25.490Z,100.00
2022-09-20T03:09:01.963Z,100.00
2022-09-20T03:11:36.815Z,100.00
2022-09-20T03:14:12.769Z,100.00
2022-09-20T03:16:52.915Z,100.00
2022-09-20T03:19:33.506Z,100.00
2022-09-20T03:22:10.432Z,100.00
2022-09-20T03:24:54.607Z,100.00
2022-09-20T03:27:31.980Z,100.00
2022-09-20T03:30:16.184Z,100.00
2022-09-20T03:32:57.676Z,100.00
2022-09-20T03:35:40.179Z,100.00
2022-09-20T03:38:30.275Z,100.00
2022-09-20T03:41:12.174Z,100.00
2022-09-20T03:43:55.810Z,100.00
2022-09-20T03:46:27.593Z,100.00
2022-09-20T03:49:20.470Z,100.00
2022-09-20T03:51:59.944Z,100.00
2022-09-20T03:54:59.010Z,100.00
2022-09-20T03:58:03.167Z,100.00
2022-09-20T04:00:50.000Z,100.00
2022-09-20T04:03:38.214Z,100.00
2022-09-20T04:06:24.880Z,100.00
2022-09-20T04:09:14.231Z,100.00
2022-09-20T04:11:52.234Z,100.00
2022-09-20T04:14:27.913Z,100.00
2022-09-20T04:17:02.912Z,100.00
2022-09-20T04:19:36.631Z,100.00
2022-09-20T04:22:07.481Z,100.00
2022-09-20T04:24:43.112Z,100.00
2022-09-20T04:27:17.949Z,100.00
2022-09-20T04:29:51.375Z,100.00
2022-09-20T04:32:25.517Z,100.00
2022-09-20T04:35:18.247Z,100.00
2022-09-20T04:37:47.858Z,100.00
2022-09-20T04:40:27.632Z,100.00
2022-09-20T04:43:40.445Z,100.00
2022-09-20T04:46:32.969Z,100.00
2022-09-20T04:49:37.549Z,100.00
2022-09-20T04:52:45.785Z,100.00
2022-09-20T04:55:55.699Z,100.00
2022-09-20T04:58:49.650Z,100.00
2022-09-20T05:01:55.733Z,100.00
2022-09-20T05:05:08.550Z,100.00
2022-09-20T05:08:33.988Z,100.00
2022-09-20T05:11:43.273Z,100.00
2022-09-20T05:14:38.305Z,100.00
2022-09-20T05:17:25.470Z,100.00
2022-09-20T05:20:24.343Z,100.00
2022-09-20T05:23:10.447Z,100.00
2022-09-20T05:25:56.626Z,100.00
2022-09-20T05:28:32.665Z,100.00
2022-09-20T05:31:07.266Z,100.00
2022-09-20T05:33:45.030Z,100.00
2022-09-20T05:36:21.354Z,100.00
2022-09-20T05:38:53.204Z,100.00
2022-09-20T05:41:32.002Z,100.00
2022-09-20T05:44:09.061Z,100.00
2022-09-20T05:46:47.155Z,100.00
2022-09-20T05:49:25.769Z,100.00
2022-09-20T05:52:07.999Z,100.00
2022-09-20T05:55:01.120Z,100.00
2022-09-20T05:57:40.968Z,100.00
2022-09-20T06:00:13.480Z,100.00
2022-09-20T06:02:51.318Z,100.00
2022-09-20T06:05:33.719Z,100.00
2022-09-20T06:08:17.603Z,100.00
2022-09-20T06:10:57.301Z,100.00
2022-09-20T06:13:39.724Z,100.00
2022-09-20T06:16:11.505Z,100.00
2022-09-20T06:18:46.510Z,100.00
2022-09-20T06:21:30.401Z,100.00
2022-09-20T06:24:01.280Z,100.00
2022-09-20T06:26:34.721Z,100.00
2022-09-20T06:29:05.912Z,100.00
2022-09-20T06:31:34.079Z,100.00
2022-09-20T06:34:05.495Z,100.00
2022-09-20T06:37:03.404Z,100.00
2022-09-20T06:40:00.427Z,100.00
2022-09-20T06:42:29.601Z,100.00
2022-09-20T06:44:58.000Z,100.00
2022-09-20T06:47:26.948Z,100.00
2022-09-20T06:49:55.634Z,100.00
2022-09-20T06:52:24.745Z,100.00
2022-09-20T06:54:55.831Z,100.00
2022-09-20T06:57:28.591Z,100.00
2022-09-20T06:59:56.342Z,100.00
2022-09-20T07:02:24.436Z,100.00
2022-09-20T07:04:53.913Z,100.00
2022-09-20T07:07:21.623Z,100.00
2022-09-20T07:09:51.270Z,100.00
2022-09-20T07:12:19.149Z,100.00
2022-09-20T07:14:46.878Z,100.00
2022-09-20T07:17:14.719Z,100.00
2022-09-20T07:19:42.508Z,100.00
2022-09-20T07:22:10.221Z,100.00
2022-09-20T07:24:37.993Z,100.00
2022-09-20T07:27:07.225Z,100.00
2022-09-20T07:29:35.466Z,100.00
2022-09-20T07:32:03.398Z,100.00
2022-09-20T07:34:32.132Z,100.00
2022-09-20T07:37:00.217Z,100.00
2022-09-20T07:39:28.175Z,100.00
2022-09-20T07:41:55.830Z,100.00
2022-09-20T07:44:28.038Z,100.00
2022-09-20T07:46:59.095Z,100.00
2022-09-20T07:49:28.702Z,100.00
2022-09-20T07:51:56.509Z,100.00
2022-09-20T07:54:24.168Z,100.00
2022-09-20T07:56:52.386Z,100.00
2022-09-20T07:59:20.048Z,100.00
2022-09-20T08:01:49.042Z,100.00
2022-09-20T08:04:16.677Z,100.00
2022-09-20T08:06:46.055Z,100.00
2022-09-20T08:09:14.659Z,100.00
2022-09-20T08:11:43.793Z,100.00
2022-09-20T08:14:16.015Z,100.00
2022-09-20T08:16:45.872Z,100.00
2022-09-20T08:19:18.838Z,100.00
2022-09-20T08:21:46.510Z,100.00
2022-09-20T08:24:16.387Z,100.00
2022-09-20T08:26:44.879Z,100.00
2022-09-20T08:29:13.402Z,100.00
2022-09-20T08:31:42.370Z,100.00
2022-09-20T08:34:12.934Z,100.00
2022-09-20T08:36:46.206Z,100.00
2022-09-20T08:42:12.936Z,100.00
2022-09-20T08:44:57.815Z,100.00
2022-09-20T08:47:28.578Z,100.00
2022-09-20T08:49:57.283Z,100.00
2022-09-20T08:52:36.325Z,100.00
2022-09-20T08:55:07.500Z,100.00
2022-09-20T08:57:35.560Z,100.00
2022-09-20T09:00:05.625Z,100.00
2022-09-20T09:02:34.370Z,100.00
2022-09-20T09:05:04.140Z,100.00
2022-09-20T09:07:33.278Z,100.00
2022-09-20T09:10:02.805Z,100.00
2022-09-20T09:12:35.035Z,100.00
2022-09-20T09:15:19.559Z,100.00
2022-09-20T09:17:47.413Z,100.00
2022-09-20T09:20:21.587Z,100.00
2022-09-20T09:23:02.656Z,100.00
2022-09-20T09:25:34.249Z,99.31
2022-09-20T09:28:06.002Z,98.08
2022-09-20T09:30:35.663Z,98.34
2022-09-20T09:33:25.376Z,97.98
2022-09-20T09:35:55.066Z,98.15
2022-09-20T09:38:26.332Z,95.17
2022-09-20T09:40:55.969Z,94.19
2022-09-20T09:43:27.266Z,94.97
2022-09-20T09:45:55.841Z,94.27
2022-09-20T09:48:26.748Z,93.83
2022-09-20T09:51:10.305Z,94.66
2022-09-20T09:53:40.607Z,95.79
2022-09-20T09:56:28.261Z,95.12
2022-09-20T09:59:10.697Z,94.13
2022-09-20T10:01:45.508Z,93.14
2022-09-20T10:04:22.771Z,92.47
2022-09-20T10:06:59.930Z,92.05
2022-09-20T10:09:49.486Z,92.58
2022-09-20T10:12:27.277Z,92.03
2022-09-20T10:15:08.355Z,91.78
2022-09-20T10:17:52.334Z,90.08
2022-09-20T10:20:37.639Z,90.45
2022-09-20T10:26:21.661Z,90.36
2022-09-20T10:29:03.085Z,89.82
2022-09-20T10:31:45.460Z,88.52
2022-09-20T10:34:43.983Z,87.78
2022-09-20T10:37:19.938Z,87.96
2022-09-20T10:39:57.671Z,87.04
2022-09-20T10:42:55.127Z,87.30
2022-09-20T10:46:03.425Z,87.03
2022-09-20T10:48:26.573Z,86.55
2022-09-20T10:50:59.263Z,87.16
2022-09-20T10:53:37.313Z,86.57
2022-09-20T10:56:17.542Z,87.27
2022-09-20T10:59:19.094Z,86.69
2022-09-20T11:01:59.847Z,86.43
2022-09-20T11:04:55.021Z,85.65
2022-09-20T11:07:34.969Z,85.26
2022-09-20T11:10:08.616Z,85.11
2022-09-20T11:12:42.589Z,84.39
2022-09-20T11:15:20.277Z,84.25
2022-09-20T11:18:01.849Z,82.45
2022-09-20T11:20:36.556Z,82.88
2022-09-20T11:23:11.338Z,82.45
2022-09-20T11:25:44.470Z,82.10
2022-09-20T11:28:20.477Z,82.33
2022-09-20T11:30:57.479Z,82.06
2022-09-20T11:33:30.660Z,81.31
2022-09-20T11:36:02.393Z,80.76
2022-09-20T11:38:37.269Z,78.72
2022-09-20T11:41:12.765Z,78.47
2022-09-20T11:43:44.400Z,77.71
2022-09-20T11:46:16.142Z,78.60
2022-09-20T11:48:47.915Z,79.17
2022-09-20T11:51:45.348Z,76.54
2022-09-20T11:54:37.341Z,75.43
2022-09-20T11:57:07.999Z,74.51
2022-09-20T11:59:38.413Z,71.75
2022-09-20T12:02:19.285Z,69.63
2022-09-20T12:04:53.086Z,71.22
2022-09-20T12:07:24.947Z,70.16
2022-09-20T12:09:56.374Z,68.68
2022-09-20T12:12:34.461Z,67.71
2022-09-20T12:15:06.887Z,66.64
2022-09-20T12:18:22.330Z,65.81
2022-09-20T12:21:16.534Z,64.36
2022-09-20T12:24:21.119Z,62.87
2022-09-20T12:26:51.301Z,63.22
2022-09-20T12:29:54.622Z,61.43
2022-09-20T12:32:48.540Z,61.18
2022-09-20T12:35:55.715Z,60.69
2022-09-20T12:38:31.230Z,59.54
2022-09-20T12:41:00.777Z,57.75
2022-09-20T12:43:31.588Z,53.84
2022-09-20T12:46:04.560Z,53.41
2022-09-20T12:48:39.015Z,52.84
2022-09-20T12:51:38.070Z,53.20
2022-09-20T12:54:10.640Z,54.00
2022-09-20T12:56:41.488Z,55.36
2022-09-20T12:59:23.003Z,53.41
2022-09-20T13:01:50.847Z,52.11
2022-09-20T13:04:55.705Z,47.88
2022-09-20T13:07:43.635Z,50.47
2022-09-20T13:10:30.108Z,49.92
2022-09-20T13:13:04.208Z,49.78
2022-09-20T13:15:33.195Z,50.07
2022-09-20T13:18:02.996Z,50.35
2022-09-20T13:20:34.932Z,50.77
2022-09-20T13:23:05.333Z,50.95
2022-09-20T13:25:35.367Z,49.98
2022-09-20T13:28:08.915Z,46.87
2022-09-20T13:30:37.043Z,48.07
2022-09-20T13:33:21.952Z,48.85
2022-09-20T13:35:52.638Z,48.47
2022-09-20T13:38:25.092Z,46.89
2022-09-20T13:41:00.608Z,47.01
2022-09-20T13:43:33.418Z,47.42
2022-09-20T13:46:08.685Z,48.03
2022-09-20T13:48:36.995Z,46.41
2022-09-20T13:51:04.991Z,46.27
2022-09-20T13:53:41.521Z,46.48
2022-09-20T13:56:19.129Z,46.37
2022-09-20T13:58:47.242Z,46.54
2022-09-20T14:01:26.667Z,46.15
2022-09-20T14:03:55.442Z,44.68
2022-09-20T14:06:29.482Z,44.91
2022-09-20T14:08:59.634Z,45.57
2022-09-20T14:11:31.128Z,46.26
2022-09-20T14:14:01.628Z,46.08
2022-09-20T14:16:32.462Z,45.78
2022-09-20T14:19:01.198Z,45.94
2022-09-20T14:21:33.055Z,45.12
2022-09-20T14:24:04.120Z,44.29
2022-09-20T14:26:36.192Z,43.64
2022-09-20T14:29:31.595Z,42.31
2022-09-20T14:32:03.501Z,42.54
2022-09-20T14:34:31.686Z,42.51
2022-09-20T14:37:07.821Z,42.37
2022-09-20T14:39:46.300Z,42.80
2022-09-20T14:42:21.768Z,42.97
2022-09-20T14:44:54.801Z,41.54
2022-09-20T14:47:28.346Z,41.65
2022-09-20T14:49:58.398Z,41.29
2022-09-20T14:52:37.471Z,41.65
2022-09-20T14:55:20.238Z,42.10
2022-09-20T14:57:50.099Z,41.67
2022-09-20T15:00:20.715Z,41.69
2022-09-20T15:02:48.810Z,41.54
2022-09-20T15:05:23.892Z,41.44
2022-09-20T15:07:51.663Z,42.07
2022-09-20T15:10:19.660Z,42.32
2022-09-20T15:12:48.755Z,42.54
2022-09-20T15:15:19.235Z,42.66
2022-09-20T15:17:48.617Z,43.90
2022-09-20T15:20:23.814Z,44.77
2022-09-20T15:22:52.366Z,44.56
2022-09-20T15:25:22.121Z,45.96
2022-09-20T15:27:51.811Z,46.00
2022-09-20T15:30:21.080Z,45.92
2022-09-20T15:32:49.271Z,46.59
2022-09-20T15:35:17.229Z,47.47
2022-09-20T15:37:45.481Z,48.41
2022-09-20T15:40:13.327Z,48.67
2022-09-20T15:42:41.796Z,48.83
2022-09-20T15:45:12.529Z,47.26
2022-09-20T15:47:41.097Z,47.71
2022-09-20T15:50:10.092Z,48.19
2022-09-20T15:52:39.867Z,48.46
2022-09-20T15:55:09.270Z,48.51
2022-09-20T15:57:36.946Z,49.21
2022-09-20T16:00:05.234Z,48.34
2022-09-20T16:02:42.373Z,49.28
2022-09-20T16:05:11.008Z,48.82
2022-09-20T16:07:38.748Z,48.92
2022-09-20T16:10:07.242Z,48.17
2022-09-20T16:12:34.948Z,48.84
2022-09-20T16:15:02.624Z,50.04
2022-09-20T16:17:47.832Z,50.44
2022-09-20T16:20:17.703Z,50.41
2022-09-20T16:22:45.517Z,50.46
2022-09-20T16:25:13.249Z,51.21
2022-09-20T16:27:41.141Z,51.16
2022-09-20T16:30:09.811Z,52.12
2022-09-20T16:32:37.651Z,52.86
2022-09-20T16:35:07.903Z,53.42
2022-09-20T16:37:39.321Z,54.04
2022-09-20T16:40:11.259Z,55.38
2022-09-20T16:42:39.030Z,56.48
2022-09-20T16:45:07.600Z,57.57
2022-09-20T16:47:37.791Z,58.70
2022-09-20T16:50:06.160Z,59.20
2022-09-20T16:52:33.893Z,59.88
2022-09-20T16:55:03.232Z,60.10
2022-09-20T16:57:32.032Z,60.39
2022-09-20T16:59:59.642Z,60.32
2022-09-20T17:02:27.275Z,60.41
2022-09-20T17:04:54.844Z,60.81
2022-09-20T17:07:24.575Z,61.39
2022-09-20T17:09:52.145Z,61.97
2022-09-20T17:12:23.383Z,62.44
2022-09-20T17:14:50.942Z,63.61
2022-09-20T17:17:22.541Z,63.97
2022-09-20T17:19:50.130Z,64.32
2022-09-20T17:22:17.705Z,64.54
2022-09-20T17:24:45.349Z,65.24
2022-09-20T17:27:13.299Z,65.55
2022-09-20T17:29:42.207Z,66.02
2022-09-20T17:32:09.842Z,66.57
2022-09-20T17:34:37.651Z,66.93
2022-09-20T17:37:05.919Z,67.28
2022-09-20T17:39:33.553Z,67.36
2022-09-20T17:42:01.403Z,67.68
2022-09-20T17:44:29.428Z,67.83
2022-09-20T17:46:58.437Z,68.57
2022-09-20T17:49:27.628Z,69.01
2022-09-20T17:51:56.761Z,69.36
2022-09-20T17:54:24.990Z,70.01
2022-09-20T17:56:55.971Z,70.13
2022-09-20T17:59:24.545Z,70.67
2022-09-20T18:01:54.321Z,71.02
2022-09-20T18:04:24.477Z,71.38
2022-09-20T18:06:53.888Z,71.65
2022-09-20T18:09:24.146Z,72.19
2022-09-20T18:11:53.238Z,72.58
2022-09-20T18:14:23.629Z,72.80
2022-09-20T18:16:53.201Z,73.26
2022-09-20T18:19:22.597Z,73.86
2022-09-20T18:21:51.761Z,74.13
2022-09-20T18:24:19.452Z,74.37
2022-09-20T18:26:47.070Z,75.21
2022-09-20T18:29:17.866Z,75.44
2022-09-20T18:31:48.424Z,75.94
2022-09-20T18:34:18.678Z,76.28
2022-09-20T18:36:47.823Z,76.84
2022-09-20T18:39:16.832Z,77.15
2022-09-20T18:41:44.840Z,77.32
2022-09-20T18:44:13.618Z,77.64
2022-09-20T18:46:41.633Z,77.79
2022-09-20T18:49:13.491Z,78.49
2022-09-20T18:51:42.099Z,78.49
2022-09-20T18:54:11.373Z,78.89
2022-09-20T18:56:44.115Z,79.51
2022-09-20T18:59:16.004Z,79.58
2022-09-20T19:02:03.481Z,80.13
2022-09-20T19:04:50.270Z,80.38
2022-09-20T19:07:26.607Z,80.91
2022-09-20T19:10:00.856Z,81.18
2022-09-20T19:12:40.508Z,81.32
2022-09-20T19:15:23.592Z,81.70
2022-09-20T19:18:06.879Z,81.92
2022-09-20T19:20:44.900Z,81.96
2022-09-20T19:23:35.422Z,82.26
2022-09-20T19:26:08.862Z,82.75
2022-09-20T19:28:38.419Z,83.29
2022-09-20T19:31:06.711Z,83.54
2022-09-20T19:33:34.897Z,83.75
2022-09-20T19:36:03.739Z,84.12
2022-09-20T19:38:42.142Z,84.16
2022-09-20T19:41:27.415Z,84.53
2022-09-20T19:44:15.415Z,84.87
2022-09-20T19:46:53.647Z,85.22
2022-09-20T19:49:29.923Z,85.69
2022-09-20T19:51:58.026Z,85.54
2022-09-20T19:54:26.176Z,86.10
2022-09-20T19:56:56.485Z,86.50
2022-09-20T19:59:28.141Z,87.00
2022-09-20T20:01:57.572Z,87.14
2022-09-20T20:04:26.041Z,87.06
2022-09-20T20:07:04.542Z,87.49
2022-09-20T20:09:42.264Z,87.65
2022-09-20T20:12:15.513Z,87.87
2022-09-20T20:14:54.532Z,88.26
2022-09-20T20:17:37.397Z,88.68
2022-09-20T20:20:17.038Z,88.73
2022-09-20T20:23:20.632Z,88.84
2022-09-20T20:25:55.564Z,89.26
2022-09-20T20:28:23.205Z,89.23
2022-09-20T20:30:54.668Z,89.60
2022-09-20T20:33:24.301Z,89.96
2022-09-20T20:35:55.744Z,90.32
2022-09-20T20:38:26.191Z,90.19
2022-09-20T20:41:04.622Z,90.38
2022-09-20T20:43:33.074Z,90.39
2022-09-20T20:46:02.100Z,90.38
2022-09-20T20:48:30.500Z,90.82
2022-09-20T20:51:02.958Z,91.15
2022-09-20T20:53:32.277Z,90.94
2022-09-20T20:56:02.254Z,91.13
2022-09-20T20:58:32.271Z,91.12
2022-09-20T21:01:09.889Z,91.38
2022-09-20T21:03:37.603Z,91.20
2022-09-20T21:06:05.837Z,91.35
2022-09-20T21:08:34.241Z,91.62
2022-09-20T21:11:03.740Z,91.27
2022-09-20T21:13:31.457Z,91.45
2022-09-20T21:16:08.887Z,91.33
2022-09-20T21:18:37.013Z,90.87
2022-09-20T21:21:06.205Z,91.15
2022-09-20T21:23:37.283Z,90.75
2022-09-20T21:26:08.999Z,90.94
2022-09-20T21:28:38.542Z,90.74
2022-09-20T21:31:08.851Z,91.33
2022-09-20T21:33:38.551Z,91.41
2022-09-20T21:36:08.895Z,91.26
2022-09-20T21:38:37.393Z,91.52
2022-09-20T21:41:07.645Z,91.91
2022-09-20T21:43:36.015Z,92.26
2022-09-20T21:46:04.858Z,91.75
2022-09-20T21:48:33.862Z,92.43
2022-09-20T21:51:03.170Z,93.00
2022-09-20T21:53:30.963Z,92.76
2022-09-20T21:55:59.430Z,93.17
2022-09-20T21:58:27.712Z,93.37
2022-09-20T22:01:00.619Z,93.40
2022-09-20T22:03:34.215Z,93.61
2022-09-20T22:06:06.435Z,93.73
2022-09-20T22:08:34.239Z,94.02
2022-09-20T22:11:02.452Z,94.11
2022-09-20T22:13:30.513Z,94.02
2022-09-20T22:16:04.111Z,94.16
2022-09-20T22:18:38.339Z,94.08
2022-09-20T22:21:08.283Z,94.67
2022-09-20T22:23:36.270Z,94.78
2022-09-20T22:26:06.156Z,94.93
2022-09-20T22:28:33.971Z,94.88
2022-09-20T22:31:07.290Z,95.12
2022-09-20T22:33:37.745Z,95.68
2022-09-20T22:36:09.212Z,96.09
2022-09-20T22:38:37.038Z,96.55
2022-09-20T22:41:05.012Z,96.84
2022-09-20T22:43:33.501Z,96.98
2022-09-20T22:46:05.605Z,97.44
2022-09-20T22:48:34.001Z,97.16
2022-09-20T22:51:04.734Z,97.67
2022-09-20T22:53:33.241Z,97.44
2022-09-20T22:56:08.663Z,97.45
2022-09-20T22:58:37.882Z,98.84
2022-09-20T23:01:07.542Z,99.54
2022-09-20T23:03:35.458Z,100.00
2022-09-20T23:06:05.287Z,99.98
2022-09-20T23:08:33.286Z,100.00
2022-09-20T23:11:02.422Z,100.00
2022-09-20T23:13:30.459Z,100.00
2022-09-20T23:15:58.314Z,100.00
2022-09-20T23:18:26.795Z,100.00
2022-09-20T23:21:01.711Z,100.00
2022-09-20T23:23:30.999Z,100.00
2022-09-20T23:26:07.361Z,100.00
2022-09-20T23:28:35.616Z,100.00
2022-09-20T23:31:04.906Z,100.00
2022-09-20T23:33:32.852Z,100.00
2022-09-20T23:36:01.063Z,100.00
2022-09-20T23:38:30.042Z,100.00
2022-09-20T23:41:03.204Z,100.00
2022-09-20T23:43:30.918Z,100.00
2022-09-20T23:45:58.832Z,100.00
2022-09-20T23:48:26.881Z,100.00
2022-09-20T23:50:54.831Z,100.00
2022-09-20T23:53:22.934Z,100.00
2022-09-20T23:55:52.080Z,100.00
2022-09-20T23:58:19.839Z,100.00
